ジッダ の空港の天気 - METARとTAF

キング・アブドゥルアズィーズ国際空港(ジッダ) ( OEJN / JED ) - サウジアラビア ジッダ
飛行場実況気象(Metar)
観測時間04/25 17:00 AST (04/25 14:00 UTC)
風向・風速西南西 4m/s
視程10km以上
天気現象
なし
気温32℃
湿度41%
気圧1005hPa
METAROEJN 251400Z 24007KT CAVOK 32/17 Q1005 NOSIG
過去の天気等 Google飛行場航空写真 Wunderground天気予報

過去48時間のMETAR

飛行場予報(TAF)
発表時間: 4/25 14:00 AST (4/25 11:00 UTC)
予報対象時間: 25日15時 AST ~ 26日21時 AST
風向・風速北北西 8m/s
視程10km以上
なし
25日23時 AST ~ 26日1時 AST に徐々に
風向・風速北北東 3m/s
TAF OEJN 251100Z 2512/2618 33015KT CAVOK
BECMG 2520/2522 02006KT